< < Back
Terminal Aerodrome Forecast


Current Version              Previous Versions:   1  2  3  4  5  6  7  8  9  

Terminal Aerodrome Forecast

701
FTAK31 PAJN 091140
TAFAGS
TAF
PAGS 091140Z 0912/1012 14006KT P6SM VCSH OVC035 WS020/25025KT
     FM091500 VRB05KT P6SM BKN035 BKN050
     FM091800 34005KT P6SM SCT030 SCT070
     FM100400 34006KT P6SM SCT005 SCT030 BKN050
     FM100900 VRB05KT P6SM -RA BKN040 OVC070
      AMD LTD TO CLD VIS AND WIND=



Latest METAR

383
SAUS70 KWBC 092000 RRK
MTRAGS
METAR KAGS 091953Z 26016G24KT 10SM OVC049 04/M06 A2982 RMK AO2 SLP098
T00391061


USA.gov is the U.S. government's official web portal to all federal, state and local government web resources and services.